sensor_id;sensor_type;location;lat;lon;timestamp;temperature;humidity
23237;DHT22;11787;52.018;8.570;2023-12-20T00:00:40;7.30;99.90
23237;DHT22;11787;52.018;8.570;2023-12-20T00:03:05;7.30;99.90
23237;DHT22;11787;52.018;8.570;2023-12-20T00:05:31;7.20;99.90
23237;DHT22;11787;52.018;8.570;2023-12-20T00:08:00;7.10;99.90
23237;DHT22;11787;52.018;8.570;2023-12-20T00:10:26;7.10;99.90
23237;DHT22;11787;52.018;8.570;2023-12-20T00:12:51;7.10;99.90
23237;DHT22;11787;52.018;8.570;2023-12-20T00:15:17;7.10;99.90
23237;DHT22;11787;52.018;8.570;2023-12-20T00:17:42;7.10;99.90
23237;DHT22;11787;52.018;8.570;2023-12-20T00:20:08;7.00;99.90
23237;DHT22;11787;52.018;8.570;2023-12-20T00:22:34;7.10;99.90
23237;DHT22;11787;52.018;8.570;2023-12-20T00:24:59;7.00;99.90
23237;DHT22;11787;52.018;8.570;2023-12-20T00:27:25;7.00;99.90
23237;DHT22;11787;52.018;8.570;2023-12-20T00:29:50;7.00;99.90
23237;DHT22;11787;52.018;8.570;2023-12-20T00:32:16;6.90;99.90
23237;DHT22;11787;52.018;8.570;2023-12-20T00:34:42;7.00;99.90
23237;DHT22;11787;52.018;8.570;2023-12-20T00:37:07;7.00;99.90
23237;DHT22;11787;52.018;8.570;2023-12-20T00:39:33;7.00;99.90
23237;DHT22;11787;52.018;8.570;2023-12-20T00:41:58;7.00;99.90
23237;DHT22;11787;52.018;8.570;2023-12-20T00:44:24;6.90;99.90
23237;DHT22;11787;52.018;8.570;2023-12-20T00:46:49;6.90;99.90
23237;DHT22;11787;52.018;8.570;2023-12-20T00:49:15;7.00;99.90
23237;DHT22;11787;52.018;8.570;2023-12-20T00:51:40;6.90;99.90
23237;DHT22;11787;52.018;8.570;2023-12-20T00:54:06;7.00;99.90
23237;DHT22;11787;52.018;8.570;2023-12-20T00:56:31;6.90;99.90
23237;DHT22;11787;52.018;8.570;2023-12-20T00:58:57;7.00;99.90
23237;DHT22;11787;52.018;8.570;2023-12-20T01:01:22;7.00;99.90
23237;DHT22;11787;52.018;8.570;2023-12-20T01:03:47;6.90;99.90
23237;DHT22;11787;52.018;8.570;2023-12-20T01:06:13;6.90;99.90
23237;DHT22;11787;52.018;8.570;2023-12-20T01:08:39;7.00;99.90
23237;DHT22;11787;52.018;8.570;2023-12-20T01:11:05;7.00;99.90
23237;DHT22;11787;52.018;8.570;2023-12-20T01:13:31;6.90;99.90
23237;DHT22;11787;52.018;8.570;2023-12-20T01:15:56;6.90;99.90
23237;DHT22;11787;52.018;8.570;2023-12-20T01:18:22;7.00;99.90
23237;DHT22;11787;52.018;8.570;2023-12-20T01:20:47;7.00;99.90
23237;DHT22;11787;52.018;8.570;2023-12-20T01:23:12;6.90;99.90
23237;DHT22;11787;52.018;8.570;2023-12-20T01:25:38;7.00;99.90
23237;DHT22;11787;52.018;8.570;2023-12-20T01:28:04;7.00;99.90
23237;DHT22;11787;52.018;8.570;2023-12-20T01:30:29;6.80;99.90
23237;DHT22;11787;52.018;8.570;2023-12-20T01:32:55;6.90;99.90
23237;DHT22;11787;52.018;8.570;2023-12-20T01:35:20;6.80;99.90
23237;DHT22;11787;52.018;8.570;2023-12-20T01:37:46;6.80;99.90
23237;DHT22;11787;52.018;8.570;2023-12-20T01:40:11;6.80;99.90
23237;DHT22;11787;52.018;8.570;2023-12-20T01:42:37;6.80;99.90
23237;DHT22;11787;52.018;8.570;2023-12-20T01:45:03;6.80;99.90
23237;DHT22;11787;52.018;8.570;2023-12-20T01:47:28;6.80;99.90
23237;DHT22;11787;52.018;8.570;2023-12-20T01:49:54;6.80;99.90
23237;DHT22;11787;52.018;8.570;2023-12-20T01:52:22;6.80;99.90
23237;DHT22;11787;52.018;8.570;2023-12-20T01:54:48;6.70;99.90
23237;DHT22;11787;52.018;8.570;2023-12-20T01:57:14;6.70;99.90
23237;DHT22;11787;52.018;8.570;2023-12-20T01:59:39;6.70;99.90
23237;DHT22;11787;52.018;8.570;2023-12-20T02:02:05;6.70;99.90
23237;DHT22;11787;52.018;8.570;2023-12-20T02:04:31;6.70;99.90
23237;DHT22;11787;52.018;8.570;2023-12-20T02:06:57;6.70;99.90
23237;DHT22;11787;52.018;8.570;2023-12-20T02:09:24;6.70;99.90
23237;DHT22;11787;52.018;8.570;2023-12-20T02:11:49;6.70;99.90
23237;DHT22;11787;52.018;8.570;2023-12-20T02:14:15;6.70;99.90
23237;DHT22;11787;52.018;8.570;2023-12-20T02:16:40;6.60;99.90
23237;DHT22;11787;52.018;8.570;2023-12-20T02:19:07;6.60;99.90
23237;DHT22;11787;52.018;8.570;2023-12-20T02:21:35;6.60;99.90
23237;DHT22;11787;52.018;8.570;2023-12-20T02:24:01;6.60;99.90
23237;DHT22;11787;52.018;8.570;2023-12-20T02:26:26;6.50;99.90
23237;DHT22;11787;52.018;8.570;2023-12-20T02:28:52;6.50;99.90
23237;DHT22;11787;52.018;8.570;2023-12-20T02:31:20;6.50;99.90
23237;DHT22;11787;52.018;8.570;2023-12-20T02:33:45;6.50;99.90
23237;DHT22;11787;52.018;8.570;2023-12-20T02:36:11;6.50;99.90
23237;DHT22;11787;52.018;8.570;2023-12-20T02:38:36;6.50;99.90
23237;DHT22;11787;52.018;8.570;2023-12-20T02:41:02;6.50;99.90
23237;DHT22;11787;52.018;8.570;2023-12-20T02:43:27;6.50;99.90
23237;DHT22;11787;52.018;8.570;2023-12-20T02:45:53;6.50;99.90
23237;DHT22;11787;52.018;8.570;2023-12-20T02:48:18;6.40;99.90
23237;DHT22;11787;52.018;8.570;2023-12-20T02:50:45;6.50;99.90
23237;DHT22;11787;52.018;8.570;2023-12-20T02:53:10;6.50;99.90
23237;DHT22;11787;52.018;8.570;2023-12-20T02:55:36;6.50;99.90
23237;DHT22;11787;52.018;8.570;2023-12-20T02:58:01;6.40;99.90
23237;DHT22;11787;52.018;8.570;2023-12-20T03:00:27;6.40;99.90
23237;DHT22;11787;52.018;8.570;2023-12-20T03:02:52;6.40;99.90
23237;DHT22;11787;52.018;8.570;2023-12-20T03:05:18;6.40;99.90
23237;DHT22;11787;52.018;8.570;2023-12-20T03:07:43;6.40;99.90
23237;DHT22;11787;52.018;8.570;2023-12-20T03:10:09;6.40;99.90
23237;DHT22;11787;52.018;8.570;2023-12-20T03:12:35;6.40;99.90
23237;DHT22;11787;52.018;8.570;2023-12-20T03:15:00;6.40;99.90
23237;DHT22;11787;52.018;8.570;2023-12-20T03:17:25;6.40;99.90
23237;DHT22;11787;52.018;8.570;2023-12-20T03:19:51;6.40;99.90
23237;DHT22;11787;52.018;8.570;2023-12-20T03:22:16;6.40;99.90
23237;DHT22;11787;52.018;8.570;2023-12-20T03:24:42;6.40;99.90
23237;DHT22;11787;52.018;8.570;2023-12-20T03:27:07;6.30;99.90
23237;DHT22;11787;52.018;8.570;2023-12-20T03:47:35;6.20;99.90
23237;DHT22;11787;52.018;8.570;2023-12-20T03:50:00;6.10;99.90
23237;DHT22;11787;52.018;8.570;2023-12-20T03:52:26;6.10;99.90
23237;DHT22;11787;52.018;8.570;2023-12-20T03:54:51;6.10;99.90
23237;DHT22;11787;52.018;8.570;2023-12-20T03:57:17;6.20;99.90
23237;DHT22;11787;52.018;8.570;2023-12-20T03:59:42;6.10;99.90
23237;DHT22;11787;52.018;8.570;2023-12-20T04:02:08;6.10;99.90
23237;DHT22;11787;52.018;8.570;2023-12-20T04:04:33;6.10;99.90
23237;DHT22;11787;52.018;8.570;2023-12-20T04:06:59;6.10;99.90
23237;DHT22;11787;52.018;8.570;2023-12-20T04:09:25;6.20;99.90
23237;DHT22;11787;52.018;8.570;2023-12-20T04:11:50;6.10;99.90
23237;DHT22;11787;52.018;8.570;2023-12-20T04:14:16;6.10;99.90
23237;DHT22;11787;52.018;8.570;2023-12-20T04:16:41;6.20;99.90
23237;DHT22;11787;52.018;8.570;2023-12-20T04:19:07;6.20;99.90
23237;DHT22;11787;52.018;8.570;2023-12-20T04:21:33;6.10;99.90
23237;DHT22;11787;52.018;8.570;2023-12-20T04:23:58;6.20;99.90
23237;DHT22;11787;52.018;8.570;2023-12-20T04:26:24;6.20;99.90
23237;DHT22;11787;52.018;8.570;2023-12-20T04:28:49;6.20;99.90
23237;DHT22;11787;52.018;8.570;2023-12-20T04:31:15;6.10;99.90
23237;DHT22;11787;52.018;8.570;2023-12-20T04:33:40;6.20;99.90
23237;DHT22;11787;52.018;8.570;2023-12-20T04:36:06;6.20;99.90
23237;DHT22;11787;52.018;8.570;2023-12-20T04:38:31;6.20;99.90
23237;DHT22;11787;52.018;8.570;2023-12-20T04:40:57;6.20;99.90
23237;DHT22;11787;52.018;8.570;2023-12-20T04:43:22;6.20;99.90
23237;DHT22;11787;52.018;8.570;2023-12-20T04:45:48;6.20;99.90
23237;DHT22;11787;52.018;8.570;2023-12-20T04:48:13;6.10;99.90
23237;DHT22;11787;52.018;8.570;2023-12-20T04:50:39;6.20;99.90
23237;DHT22;11787;52.018;8.570;2023-12-20T04:53:04;6.10;99.90
23237;DHT22;11787;52.018;8.570;2023-12-20T04:55:29;6.20;99.90
23237;DHT22;11787;52.018;8.570;2023-12-20T04:57:55;6.10;99.90
23237;DHT22;11787;52.018;8.570;2023-12-20T05:00:21;6.10;99.90
23237;DHT22;11787;52.018;8.570;2023-12-20T05:02:47;6.20;99.90
23237;DHT22;11787;52.018;8.570;2023-12-20T05:05:12;6.20;99.90
23237;DHT22;11787;52.018;8.570;2023-12-20T05:07:40;6.10;99.90
23237;DHT22;11787;52.018;8.570;2023-12-20T05:10:06;6.10;99.90
23237;DHT22;11787;52.018;8.570;2023-12-20T05:12:33;6.10;99.90
23237;DHT22;11787;52.018;8.570;2023-12-20T05:14:59;6.10;99.90
23237;DHT22;11787;52.018;8.570;2023-12-20T05:17:24;6.10;99.90
23237;DHT22;11787;52.018;8.570;2023-12-20T05:19:50;6.10;99.90
23237;DHT22;11787;52.018;8.570;2023-12-20T05:22:15;6.10;99.90
23237;DHT22;11787;52.018;8.570;2023-12-20T05:24:41;6.10;99.90
23237;DHT22;11787;52.018;8.570;2023-12-20T05:27:06;6.10;99.90
23237;DHT22;11787;52.018;8.570;2023-12-20T05:29:32;6.20;99.90
23237;DHT22;11787;52.018;8.570;2023-12-20T05:31:58;6.10;99.90
23237;DHT22;11787;52.018;8.570;2023-12-20T05:34:23;6.10;99.90
23237;DHT22;11787;52.018;8.570;2023-12-20T05:36:49;6.20;99.90
23237;DHT22;11787;52.018;8.570;2023-12-20T05:39:14;6.20;99.90
23237;DHT22;11787;52.018;8.570;2023-12-20T05:41:40;6.10;99.90
23237;DHT22;11787;52.018;8.570;2023-12-20T05:44:05;6.10;99.90
23237;DHT22;11787;52.018;8.570;2023-12-20T05:46:31;6.10;99.90
23237;DHT22;11787;52.018;8.570;2023-12-20T05:48:56;6.20;99.90
23237;DHT22;11787;52.018;8.570;2023-12-20T05:51:22;6.20;99.90
23237;DHT22;11787;52.018;8.570;2023-12-20T05:53:47;6.20;99.90
23237;DHT22;11787;52.018;8.570;2023-12-20T05:56:15;6.20;99.90
23237;DHT22;11787;52.018;8.570;2023-12-20T05:58:40;6.10;99.90
23237;DHT22;11787;52.018;8.570;2023-12-20T06:01:06;6.10;99.90
23237;DHT22;11787;52.018;8.570;2023-12-20T06:03:33;6.10;99.90
23237;DHT22;11787;52.018;8.570;2023-12-20T06:05:58;6.10;99.90
23237;DHT22;11787;52.018;8.570;2023-12-20T06:08:25;6.10;99.90
23237;DHT22;11787;52.018;8.570;2023-12-20T06:10:51;6.10;99.90
23237;DHT22;11787;52.018;8.570;2023-12-20T06:13:16;6.10;99.90
23237;DHT22;11787;52.018;8.570;2023-12-20T06:15:42;6.10;99.90
23237;DHT22;11787;52.018;8.570;2023-12-20T06:18:07;6.10;99.90
23237;DHT22;11787;52.018;8.570;2023-12-20T06:20:33;6.10;99.90
23237;DHT22;11787;52.018;8.570;2023-12-20T06:22:58;6.10;99.90
23237;DHT22;11787;52.018;8.570;2023-12-20T06:25:24;6.10;99.90
23237;DHT22;11787;52.018;8.570;2023-12-20T06:27:50;6.20;99.90
23237;DHT22;11787;52.018;8.570;2023-12-20T06:30:15;6.10;99.90
23237;DHT22;11787;52.018;8.570;2023-12-20T06:32:41;6.10;99.90
23237;DHT22;11787;52.018;8.570;2023-12-20T06:35:08;6.20;99.90
23237;DHT22;11787;52.018;8.570;2023-12-20T06:37:33;6.20;99.90
23237;DHT22;11787;52.018;8.570;2023-12-20T06:39:59;6.20;99.90
23237;DHT22;11787;52.018;8.570;2023-12-20T06:42:24;6.20;99.90
23237;DHT22;11787;52.018;8.570;2023-12-20T06:44:50;6.10;99.90
23237;DHT22;11787;52.018;8.570;2023-12-20T06:47:15;6.10;99.90
23237;DHT22;11787;52.018;8.570;2023-12-20T06:49:41;6.10;99.90
23237;DHT22;11787;52.018;8.570;2023-12-20T06:52:06;6.20;99.90
23237;DHT22;11787;52.018;8.570;2023-12-20T06:54:32;6.10;99.90
23237;DHT22;11787;52.018;8.570;2023-12-20T06:56:59;6.10;99.90
23237;DHT22;11787;52.018;8.570;2023-12-20T06:59:25;6.10;99.90
23237;DHT22;11787;52.018;8.570;2023-12-20T07:01:51;6.10;99.90
23237;DHT22;11787;52.018;8.570;2023-12-20T07:04:17;6.10;99.90
23237;DHT22;11787;52.018;8.570;2023-12-20T07:06:46;6.10;99.90
23237;DHT22;11787;52.018;8.570;2023-12-20T07:09:11;6.10;99.90
23237;DHT22;11787;52.018;8.570;2023-12-20T07:11:38;6.10;99.90
23237;DHT22;11787;52.018;8.570;2023-12-20T07:14:04;6.10;99.90
23237;DHT22;11787;52.018;8.570;2023-12-20T07:16:29;6.10;99.90
23237;DHT22;11787;52.018;8.570;2023-12-20T07:18:55;6.10;99.90
23237;DHT22;11787;52.018;8.570;2023-12-20T07:21:21;6.20;99.90
23237;DHT22;11787;52.018;8.570;2023-12-20T07:23:47;6.20;99.90
23237;DHT22;11787;52.018;8.570;2023-12-20T07:26:12;6.10;99.90
23237;DHT22;11787;52.018;8.570;2023-12-20T07:28:38;6.10;99.90
23237;DHT22;11787;52.018;8.570;2023-12-20T07:32:50;6.20;99.90
23237;DHT22;11787;52.018;8.570;2023-12-20T07:35:17;6.10;99.90
23237;DHT22;11787;52.018;8.570;2023-12-20T07:37:43;6.10;99.90
23237;DHT22;11787;52.018;8.570;2023-12-20T07:40:08;6.20;99.90
23237;DHT22;11787;52.018;8.570;2023-12-20T07:42:34;6.20;99.90
23237;DHT22;11787;52.018;8.570;2023-12-20T07:44:59;6.20;99.90
23237;DHT22;11787;52.018;8.570;2023-12-20T07:47:25;6.20;99.90
23237;DHT22;11787;52.018;8.570;2023-12-20T07:49:50;6.20;99.90
23237;DHT22;11787;52.018;8.570;2023-12-20T07:52:17;6.20;99.90
23237;DHT22;11787;52.018;8.570;2023-12-20T07:54:43;6.20;99.90
23237;DHT22;11787;52.018;8.570;2023-12-20T07:57:09;6.20;99.90
23237;DHT22;11787;52.018;8.570;2023-12-20T07:59:36;6.20;99.90
23237;DHT22;11787;52.018;8.570;2023-12-20T08:02:01;6.20;99.90
23237;DHT22;11787;52.018;8.570;2023-12-20T08:04:27;6.20;99.90
23237;DHT22;11787;52.018;8.570;2023-12-20T08:06:52;6.30;99.90
23237;DHT22;11787;52.018;8.570;2023-12-20T08:09:18;6.20;99.90
23237;DHT22;11787;52.018;8.570;2023-12-20T08:11:46;6.20;99.90
23237;DHT22;11787;52.018;8.570;2023-12-20T08:14:12;6.20;99.90
23237;DHT22;11787;52.018;8.570;2023-12-20T08:16:37;6.30;99.90
23237;DHT22;11787;52.018;8.570;2023-12-20T08:19:03;6.30;99.90
23237;DHT22;11787;52.018;8.570;2023-12-20T08:21:28;6.30;99.90
23237;DHT22;11787;52.018;8.570;2023-12-20T08:23:55;6.30;99.90
23237;DHT22;11787;52.018;8.570;2023-12-20T08:26:20;6.30;99.90
23237;DHT22;11787;52.018;8.570;2023-12-20T08:28:47;6.40;99.90
23237;DHT22;11787;52.018;8.570;2023-12-20T08:31:14;6.40;99.90
23237;DHT22;11787;52.018;8.570;2023-12-20T08:33:40;6.40;99.90
23237;DHT22;11787;52.018;8.570;2023-12-20T08:36:06;6.40;99.90
23237;DHT22;11787;52.018;8.570;2023-12-20T08:38:31;6.40;99.90
23237;DHT22;11787;52.018;8.570;2023-12-20T08:40:57;6.40;99.90
23237;DHT22;11787;52.018;8.570;2023-12-20T08:43:22;6.30;99.90
23237;DHT22;11787;52.018;8.570;2023-12-20T08:45:47;6.40;99.90
23237;DHT22;11787;52.018;8.570;2023-12-20T08:48:13;6.40;99.90
23237;DHT22;11787;52.018;8.570;2023-12-20T08:50:38;6.40;99.90
23237;DHT22;11787;52.018;8.570;2023-12-20T08:53:04;6.40;99.90
23237;DHT22;11787;52.018;8.570;2023-12-20T08:55:29;6.40;99.90
23237;DHT22;11787;52.018;8.570;2023-12-20T08:57:56;6.40;99.90
23237;DHT22;11787;52.018;8.570;2023-12-20T09:00:21;6.40;99.90
23237;DHT22;11787;52.018;8.570;2023-12-20T09:02:49;6.40;99.90
23237;DHT22;11787;52.018;8.570;2023-12-20T09:05:15;6.40;99.90
23237;DHT22;11787;52.018;8.570;2023-12-20T09:07:40;6.40;99.90
23237;DHT22;11787;52.018;8.570;2023-12-20T09:10:06;6.40;99.90
23237;DHT22;11787;52.018;8.570;2023-12-20T09:12:31;6.40;99.90
23237;DHT22;11787;52.018;8.570;2023-12-20T09:14:57;6.40;99.90
23237;DHT22;11787;52.018;8.570;2023-12-20T09:17:22;6.40;99.90
23237;DHT22;11787;52.018;8.570;2023-12-20T09:19:48;6.40;99.90
23237;DHT22;11787;52.018;8.570;2023-12-20T09:22:14;6.40;99.90
23237;DHT22;11787;52.018;8.570;2023-12-20T09:24:39;6.40;99.90
23237;DHT22;11787;52.018;8.570;2023-12-20T09:27:05;6.40;99.90
23237;DHT22;11787;52.018;8.570;2023-12-20T09:29:31;6.40;99.90
23237;DHT22;11787;52.018;8.570;2023-12-20T09:31:56;6.40;99.90
23237;DHT22;11787;52.018;8.570;2023-12-20T09:34:22;6.50;99.90
23237;DHT22;11787;52.018;8.570;2023-12-20T09:36:48;6.50;99.90
23237;DHT22;11787;52.018;8.570;2023-12-20T09:39:14;6.50;99.90
23237;DHT22;11787;52.018;8.570;2023-12-20T09:41:43;6.50;99.90
23237;DHT22;11787;52.018;8.570;2023-12-20T09:44:10;6.50;99.90
23237;DHT22;11787;52.018;8.570;2023-12-20T09:46:38;6.40;99.90
23237;DHT22;11787;52.018;8.570;2023-12-20T09:49:04;6.40;99.90
23237;DHT22;11787;52.018;8.570;2023-12-20T09:51:31;6.50;99.90
23237;DHT22;11787;52.018;8.570;2023-12-20T09:53:56;6.50;99.90
23237;DHT22;11787;52.018;8.570;2023-12-20T09:56:23;6.50;99.90
23237;DHT22;11787;52.018;8.570;2023-12-20T09:58:49;6.50;99.90
23237;DHT22;11787;52.018;8.570;2023-12-20T10:01:15;6.50;99.90
23237;DHT22;11787;52.018;8.570;2023-12-20T10:03:41;6.50;99.90
23237;DHT22;11787;52.018;8.570;2023-12-20T10:06:06;6.50;99.90
23237;DHT22;11787;52.018;8.570;2023-12-20T10:08:32;6.50;99.90
23237;DHT22;11787;52.018;8.570;2023-12-20T10:10:58;6.50;99.90
23237;DHT22;11787;52.018;8.570;2023-12-20T10:13:27;6.50;99.90
23237;DHT22;11787;52.018;8.570;2023-12-20T10:15:54;6.50;99.90
23237;DHT22;11787;52.018;8.570;2023-12-20T10:18:20;6.50;99.90
23237;DHT22;11787;52.018;8.570;2023-12-20T10:20:45;6.60;99.90
23237;DHT22;11787;52.018;8.570;2023-12-20T10:23:11;6.60;99.90
23237;DHT22;11787;52.018;8.570;2023-12-20T10:25:37;6.60;99.90
23237;DHT22;11787;52.018;8.570;2023-12-20T10:28:15;6.60;99.90
23237;DHT22;11787;52.018;8.570;2023-12-20T10:30:45;6.60;99.90
23237;DHT22;11787;52.018;8.570;2023-12-20T10:33:10;6.60;99.90
23237;DHT22;11787;52.018;8.570;2023-12-20T10:35:36;6.60;99.90
23237;DHT22;11787;52.018;8.570;2023-12-20T10:38:05;6.70;99.90
23237;DHT22;11787;52.018;8.570;2023-12-20T10:40:34;6.70;99.90
23237;DHT22;11787;52.018;8.570;2023-12-20T10:43:02;6.70;99.90
23237;DHT22;11787;52.018;8.570;2023-12-20T10:45:27;6.70;99.90
23237;DHT22;11787;52.018;8.570;2023-12-20T10:47:53;6.60;99.90
23237;DHT22;11787;52.018;8.570;2023-12-20T10:50:19;6.60;99.90
23237;DHT22;11787;52.018;8.570;2023-12-20T10:52:45;6.60;99.90
23237;DHT22;11787;52.018;8.570;2023-12-20T10:55:10;6.60;99.90
23237;DHT22;11787;52.018;8.570;2023-12-20T10:57:36;6.60;99.90
23237;DHT22;11787;52.018;8.570;2023-12-20T11:00:02;6.60;99.90
23237;DHT22;11787;52.018;8.570;2023-12-20T11:02:33;6.60;99.90
23237;DHT22;11787;52.018;8.570;2023-12-20T11:05:04;6.60;99.90
23237;DHT22;11787;52.018;8.570;2023-12-20T11:07:35;6.60;99.90
23237;DHT22;11787;52.018;8.570;2023-12-20T11:10:04;6.60;99.90
23237;DHT22;11787;52.018;8.570;2023-12-20T11:12:37;6.60;99.90
23237;DHT22;11787;52.018;8.570;2023-12-20T11:15:03;6.60;99.90
23237;DHT22;11787;52.018;8.570;2023-12-20T11:17:29;6.60;99.90
23237;DHT22;11787;52.018;8.570;2023-12-20T11:22:25;6.60;99.90
23237;DHT22;11787;52.018;8.570;2023-12-20T11:24:51;6.60;99.90
23237;DHT22;11787;52.018;8.570;2023-12-20T11:27:17;6.70;99.90
23237;DHT22;11787;52.018;8.570;2023-12-20T11:29:43;6.60;99.90
23237;DHT22;11787;52.018;8.570;2023-12-20T11:37:31;6.70;99.90
23237;DHT22;11787;52.018;8.570;2023-12-20T11:40:07;6.70;99.90
23237;DHT22;11787;52.018;8.570;2023-12-20T11:42:37;6.80;99.90
23237;DHT22;11787;52.018;8.570;2023-12-20T11:45:03;6.80;99.90
23237;DHT22;11787;52.018;8.570;2023-12-20T11:47:29;6.80;99.90
23237;DHT22;11787;52.018;8.570;2023-12-20T11:49:55;6.80;99.90
23237;DHT22;11787;52.018;8.570;2023-12-20T11:52:21;6.80;99.90
23237;DHT22;11787;52.018;8.570;2023-12-20T11:54:47;6.80;99.90
23237;DHT22;11787;52.018;8.570;2023-12-20T11:57:13;6.90;99.90
23237;DHT22;11787;52.018;8.570;2023-12-20T11:59:38;6.90;99.90
23237;DHT22;11787;52.018;8.570;2023-12-20T12:02:04;6.80;99.90
23237;DHT22;11787;52.018;8.570;2023-12-20T12:04:30;6.90;99.90
23237;DHT22;11787;52.018;8.570;2023-12-20T12:06:55;6.90;99.90
23237;DHT22;11787;52.018;8.570;2023-12-20T12:09:20;6.90;99.90
23237;DHT22;11787;52.018;8.570;2023-12-20T12:11:46;6.90;99.90
23237;DHT22;11787;52.018;8.570;2023-12-20T12:14:11;6.90;99.90
23237;DHT22;11787;52.018;8.570;2023-12-20T12:16:37;6.80;99.90
23237;DHT22;11787;52.018;8.570;2023-12-20T12:19:02;6.90;99.90
23237;DHT22;11787;52.018;8.570;2023-12-20T12:21:29;6.90;99.90
23237;DHT22;11787;52.018;8.570;2023-12-20T12:24:05;6.90;99.90
23237;DHT22;11787;52.018;8.570;2023-12-20T12:26:31;6.90;99.90
23237;DHT22;11787;52.018;8.570;2023-12-20T12:28:56;6.90;99.90
23237;DHT22;11787;52.018;8.570;2023-12-20T12:31:22;6.90;99.90
23237;DHT22;11787;52.018;8.570;2023-12-20T12:33:48;7.00;99.90
23237;DHT22;11787;52.018;8.570;2023-12-20T12:36:13;7.00;99.90
23237;DHT22;11787;52.018;8.570;2023-12-20T12:38:41;7.00;99.90
23237;DHT22;11787;52.018;8.570;2023-12-20T12:41:06;7.00;99.90
23237;DHT22;11787;52.018;8.570;2023-12-20T12:43:32;7.00;99.90
23237;DHT22;11787;52.018;8.570;2023-12-20T12:45:58;7.10;99.90
23237;DHT22;11787;52.018;8.570;2023-12-20T12:48:23;7.10;99.90
23237;DHT22;11787;52.018;8.570;2023-12-20T12:50:49;7.10;99.90
23237;DHT22;11787;52.018;8.570;2023-12-20T12:53:17;7.10;99.90
23237;DHT22;11787;52.018;8.570;2023-12-20T12:55:42;7.10;99.90
23237;DHT22;11787;52.018;8.570;2023-12-20T12:58:08;7.00;99.90
23237;DHT22;11787;52.018;8.570;2023-12-20T13:00:33;7.00;99.90
23237;DHT22;11787;52.018;8.570;2023-12-20T13:02:59;7.00;99.90
23237;DHT22;11787;52.018;8.570;2023-12-20T13:05:24;6.90;99.90
23237;DHT22;11787;52.018;8.570;2023-12-20T13:07:50;7.00;99.90
23237;DHT22;11787;52.018;8.570;2023-12-20T13:10:16;6.90;99.90
23237;DHT22;11787;52.018;8.570;2023-12-20T13:12:42;7.00;99.90
23237;DHT22;11787;52.018;8.570;2023-12-20T13:15:07;7.00;99.90
23237;DHT22;11787;52.018;8.570;2023-12-20T13:17:34;7.00;99.90
23237;DHT22;11787;52.018;8.570;2023-12-20T13:19:59;7.00;99.90
23237;DHT22;11787;52.018;8.570;2023-12-20T13:22:25;7.00;99.90
23237;DHT22;11787;52.018;8.570;2023-12-20T13:24:50;7.00;99.90
23237;DHT22;11787;52.018;8.570;2023-12-20T13:27:16;6.60;99.90
23237;DHT22;11787;52.018;8.570;2023-12-20T13:29:41;6.50;99.90
23237;DHT22;11787;52.018;8.570;2023-12-20T13:32:07;6.50;99.90
23237;DHT22;11787;52.018;8.570;2023-12-20T13:34:32;6.50;99.90
23237;DHT22;11787;52.018;8.570;2023-12-20T13:36:58;6.50;99.90
23237;DHT22;11787;52.018;8.570;2023-12-20T13:39:23;6.50;99.90
23237;DHT22;11787;52.018;8.570;2023-12-20T13:41:49;6.50;99.90
23237;DHT22;11787;52.018;8.570;2023-12-20T13:44:14;6.50;99.90
23237;DHT22;11787;52.018;8.570;2023-12-20T13:46:40;6.50;99.90
23237;DHT22;11787;52.018;8.570;2023-12-20T13:49:06;6.50;99.90
23237;DHT22;11787;52.018;8.570;2023-12-20T13:51:32;6.40;99.90
23237;DHT22;11787;52.018;8.570;2023-12-20T13:53:57;6.40;99.90
23237;DHT22;11787;52.018;8.570;2023-12-20T13:56:23;6.40;99.90
23237;DHT22;11787;52.018;8.570;2023-12-20T13:58:48;6.30;99.90
23237;DHT22;11787;52.018;8.570;2023-12-20T14:01:15;6.30;99.90
23237;DHT22;11787;52.018;8.570;2023-12-20T14:03:40;6.30;99.90
23237;DHT22;11787;52.018;8.570;2023-12-20T14:06:06;6.30;99.90
23237;DHT22;11787;52.018;8.570;2023-12-20T14:08:32;6.30;99.90
23237;DHT22;11787;52.018;8.570;2023-12-20T14:10:57;6.30;99.90
23237;DHT22;11787;52.018;8.570;2023-12-20T14:13:23;6.30;99.90
23237;DHT22;11787;52.018;8.570;2023-12-20T14:15:48;6.30;99.90
23237;DHT22;11787;52.018;8.570;2023-12-20T14:18:14;6.30;99.90
23237;DHT22;11787;52.018;8.570;2023-12-20T14:20:40;6.20;99.90
23237;DHT22;11787;52.018;8.570;2023-12-20T14:23:07;6.20;99.90
23237;DHT22;11787;52.018;8.570;2023-12-20T14:25:34;6.30;99.90
23237;DHT22;11787;52.018;8.570;2023-12-20T14:28:02;6.30;99.90
23237;DHT22;11787;52.018;8.570;2023-12-20T14:30:28;6.30;99.90
23237;DHT22;11787;52.018;8.570;2023-12-20T14:32:53;6.30;99.90
23237;DHT22;11787;52.018;8.570;2023-12-20T14:35:19;6.30;99.90
23237;DHT22;11787;52.018;8.570;2023-12-20T14:37:45;6.30;99.90
23237;DHT22;11787;52.018;8.570;2023-12-20T14:40:10;6.30;99.90
23237;DHT22;11787;52.018;8.570;2023-12-20T14:42:49;6.30;99.90
23237;DHT22;11787;52.018;8.570;2023-12-20T14:45:15;6.30;99.90
23237;DHT22;11787;52.018;8.570;2023-12-20T14:47:44;6.20;99.90
23237;DHT22;11787;52.018;8.570;2023-12-20T14:50:09;6.30;99.90
23237;DHT22;11787;52.018;8.570;2023-12-20T14:52:37;6.20;99.90
23237;DHT22;11787;52.018;8.570;2023-12-20T14:55:02;6.30;99.90
23237;DHT22;11787;52.018;8.570;2023-12-20T14:57:28;6.30;99.90
23237;DHT22;11787;52.018;8.570;2023-12-20T14:59:55;6.20;99.90
23237;DHT22;11787;52.018;8.570;2023-12-20T15:02:21;6.20;99.90
23237;DHT22;11787;52.018;8.570;2023-12-20T15:04:46;6.20;99.90
23237;DHT22;11787;52.018;8.570;2023-12-20T15:07:11;6.20;99.90
23237;DHT22;11787;52.018;8.570;2023-12-20T15:09:37;6.20;99.90
23237;DHT22;11787;52.018;8.570;2023-12-20T15:12:03;6.20;99.90
23237;DHT22;11787;52.018;8.570;2023-12-20T15:14:29;6.20;99.90
23237;DHT22;11787;52.018;8.570;2023-12-20T15:16:55;6.10;99.90
23237;DHT22;11787;52.018;8.570;2023-12-20T15:19:21;6.10;99.90
23237;DHT22;11787;52.018;8.570;2023-12-20T15:21:46;6.10;99.90
23237;DHT22;11787;52.018;8.570;2023-12-20T15:24:12;6.10;99.90
23237;DHT22;11787;52.018;8.570;2023-12-20T15:26:42;6.10;99.90
23237;DHT22;11787;52.018;8.570;2023-12-20T15:29:08;6.00;99.90
23237;DHT22;11787;52.018;8.570;2023-12-20T15:31:35;6.00;99.90
23237;DHT22;11787;52.018;8.570;2023-12-20T15:34:01;6.10;99.90
23237;DHT22;11787;52.018;8.570;2023-12-20T15:36:26;6.10;99.90
23237;DHT22;11787;52.018;8.570;2023-12-20T15:38:52;6.10;99.90
23237;DHT22;11787;52.018;8.570;2023-12-20T15:41:21;6.00;99.90
23237;DHT22;11787;52.018;8.570;2023-12-20T15:43:47;6.10;99.90
23237;DHT22;11787;52.018;8.570;2023-12-20T15:46:13;6.00;99.90
23237;DHT22;11787;52.018;8.570;2023-12-20T15:48:39;6.10;99.90
23237;DHT22;11787;52.018;8.570;2023-12-20T15:51:08;6.10;99.90
23237;DHT22;11787;52.018;8.570;2023-12-20T15:53:34;6.20;99.90
23237;DHT22;11787;52.018;8.570;2023-12-20T15:55:59;6.20;99.90
23237;DHT22;11787;52.018;8.570;2023-12-20T15:58:25;6.10;99.90
23237;DHT22;11787;52.018;8.570;2023-12-20T16:00:52;6.10;99.90
23237;DHT22;11787;52.018;8.570;2023-12-20T16:03:17;6.10;99.90